sensor_id;sensor_type;location;lat;lon;timestamp;P1;durP1;ratioP1;P2;durP2;ratioP2
32780;SDS011;19136;47.032;15.502;2023-12-07T00:00:06;61.95;;;30.77;;
32780;SDS011;19136;47.032;15.502;2023-12-07T00:02:32;69.10;;;34.53;;
32780;SDS011;19136;47.032;15.502;2023-12-07T00:04:57;67.90;;;33.03;;
32780;SDS011;19136;47.032;15.502;2023-12-07T00:07:23;68.15;;;33.03;;
32780;SDS011;19136;47.032;15.502;2023-12-07T00:09:48;77.13;;;34.33;;
32780;SDS011;19136;47.032;15.502;2023-12-07T00:12:14;67.38;;;31.88;;
32780;SDS011;19136;47.032;15.502;2023-12-07T00:14:39;110.63;;;40.30;;
32780;SDS011;19136;47.032;15.502;2023-12-07T00:17:05;64.80;;;31.77;;
32780;SDS011;19136;47.032;15.502;2023-12-07T00:19:30;69.30;;;32.88;;
32780;SDS011;19136;47.032;15.502;2023-12-07T00:21:55;81.15;;;33.35;;
32780;SDS011;19136;47.032;15.502;2023-12-07T00:24:21;226.35;;;40.38;;
32780;SDS011;19136;47.032;15.502;2023-12-07T00:26:47;75.07;;;34.03;;
32780;SDS011;19136;47.032;15.502;2023-12-07T00:29:13;63.28;;;32.13;;
32780;SDS011;19136;47.032;15.502;2023-12-07T00:31:38;75.07;;;34.50;;
32780;SDS011;19136;47.032;15.502;2023-12-07T00:34:04;90.97;;;35.80;;
32780;SDS011;19136;47.032;15.502;2023-12-07T00:36:29;74.05;;;32.90;;
32780;SDS011;19136;47.032;15.502;2023-12-07T00:38:55;66.15;;;28.55;;
32780;SDS011;19136;47.032;15.502;2023-12-07T00:41:20;163.27;;;28.23;;
32780;SDS011;19136;47.032;15.502;2023-12-07T00:43:47;301.00;;;30.05;;
32780;SDS011;19136;47.032;15.502;2023-12-07T00:46:13;55.05;;;23.77;;
32780;SDS011;19136;47.032;15.502;2023-12-07T00:48:38;53.00;;;23.58;;
32780;SDS011;19136;47.032;15.502;2023-12-07T00:51:03;134.98;;;24.17;;
32780;SDS011;19136;47.032;15.502;2023-12-07T00:53:31;56.72;;;24.75;;
32780;SDS011;19136;47.032;15.502;2023-12-07T00:55:57;53.20;;;25.25;;
32780;SDS011;19136;47.032;15.502;2023-12-07T00:58:22;85.53;;;24.55;;
32780;SDS011;19136;47.032;15.502;2023-12-07T01:00:48;79.70;;;24.80;;
32780;SDS011;19136;47.032;15.502;2023-12-07T01:03:13;223.65;;;27.85;;
32780;SDS011;19136;47.032;15.502;2023-12-07T01:05:39;405.90;;;31.17;;
32780;SDS011;19136;47.032;15.502;2023-12-07T01:08:04;95.22;;;25.20;;
32780;SDS011;19136;47.032;15.502;2023-12-07T01:10:30;75.70;;;23.48;;
32780;SDS011;19136;47.032;15.502;2023-12-07T01:12:57;153.77;;;24.05;;
32780;SDS011;19136;47.032;15.502;2023-12-07T01:15:22;86.53;;;23.23;;
32780;SDS011;19136;47.032;15.502;2023-12-07T01:17:48;154.25;;;25.05;;
32780;SDS011;19136;47.032;15.502;2023-12-07T01:20:13;97.05;;;23.58;;
32780;SDS011;19136;47.032;15.502;2023-12-07T01:22:42;107.95;;;23.88;;
32780;SDS011;19136;47.032;15.502;2023-12-07T01:25:08;83.45;;;22.45;;
32780;SDS011;19136;47.032;15.502;2023-12-07T01:27:33;204.40;;;25.58;;
32780;SDS011;19136;47.032;15.502;2023-12-07T01:29:59;120.22;;;21.50;;
32780;SDS011;19136;47.032;15.502;2023-12-07T01:32:25;80.60;;;20.15;;
32780;SDS011;19136;47.032;15.502;2023-12-07T01:34:50;184.88;;;20.90;;
32780;SDS011;19136;47.032;15.502;2023-12-07T01:37:16;121.63;;;21.52;;
32780;SDS011;19136;47.032;15.502;2023-12-07T01:39:41;61.97;;;22.65;;
32780;SDS011;19136;47.032;15.502;2023-12-07T01:42:08;293.50;;;32.22;;
32780;SDS011;19136;47.032;15.502;2023-12-07T01:44:34;129.88;;;23.20;;
32780;SDS011;19136;47.032;15.502;2023-12-07T01:46:59;51.92;;;22.40;;
32780;SDS011;19136;47.032;15.502;2023-12-07T01:49:25;71.00;;;20.67;;
32780;SDS011;19136;47.032;15.502;2023-12-07T01:51:50;88.72;;;21.58;;
32780;SDS011;19136;47.032;15.502;2023-12-07T01:54:16;44.10;;;21.25;;
32780;SDS011;19136;47.032;15.502;2023-12-07T01:56:42;103.22;;;21.67;;
32780;SDS011;19136;47.032;15.502;2023-12-07T01:59:07;50.40;;;22.02;;
32780;SDS011;19136;47.032;15.502;2023-12-07T02:01:33;120.65;;;24.20;;
32780;SDS011;19136;47.032;15.502;2023-12-07T02:03:59;71.75;;;21.70;;
32780;SDS011;19136;47.032;15.502;2023-12-07T02:06:24;64.50;;;20.90;;
32780;SDS011;19136;47.032;15.502;2023-12-07T02:08:51;59.72;;;21.70;;
32780;SDS011;19136;47.032;15.502;2023-12-07T02:11:17;47.33;;;21.20;;
32780;SDS011;19136;47.032;15.502;2023-12-07T02:13:43;39.28;;;20.45;;
32780;SDS011;19136;47.032;15.502;2023-12-07T02:16:17;58.17;;;22.10;;
32780;SDS011;19136;47.032;15.502;2023-12-07T02:18:49;90.05;;;21.08;;
32780;SDS011;19136;47.032;15.502;2023-12-07T02:21:18;48.15;;;20.48;;
32780;SDS011;19136;47.032;15.502;2023-12-07T02:23:45;62.88;;;21.20;;
32780;SDS011;19136;47.032;15.502;2023-12-07T02:26:12;67.40;;;22.67;;
32780;SDS011;19136;47.032;15.502;2023-12-07T02:28:38;58.67;;;21.35;;
32780;SDS011;19136;47.032;15.502;2023-12-07T02:31:04;94.35;;;19.98;;
32780;SDS011;19136;47.032;15.502;2023-12-07T02:33:29;54.35;;;19.85;;
32780;SDS011;19136;47.032;15.502;2023-12-07T02:35:55;43.28;;;19.80;;
32780;SDS011;19136;47.032;15.502;2023-12-07T02:38:21;122.43;;;22.45;;
32780;SDS011;19136;47.032;15.502;2023-12-07T02:40:47;44.88;;;19.95;;
32780;SDS011;19136;47.032;15.502;2023-12-07T02:43:13;125.55;;;22.17;;
32780;SDS011;19136;47.032;15.502;2023-12-07T02:45:39;76.75;;;18.70;;
32780;SDS011;19136;47.032;15.502;2023-12-07T02:48:05;37.33;;;19.58;;
32780;SDS011;19136;47.032;15.502;2023-12-07T02:50:30;63.95;;;21.23;;
32780;SDS011;19136;47.032;15.502;2023-12-07T02:52:55;79.38;;;20.58;;
32780;SDS011;19136;47.032;15.502;2023-12-07T02:55:21;55.40;;;19.67;;
32780;SDS011;19136;47.032;15.502;2023-12-07T02:57:47;52.58;;;21.73;;
32780;SDS011;19136;47.032;15.502;2023-12-07T03:00:13;51.03;;;19.77;;
32780;SDS011;19136;47.032;15.502;2023-12-07T03:02:39;91.47;;;23.05;;
32780;SDS011;19136;47.032;15.502;2023-12-07T03:05:06;61.72;;;20.17;;
32780;SDS011;19136;47.032;15.502;2023-12-07T03:07:32;48.08;;;20.40;;
32780;SDS011;19136;47.032;15.502;2023-12-07T03:09:58;75.07;;;20.13;;
32780;SDS011;19136;47.032;15.502;2023-12-07T03:12:23;43.55;;;18.20;;
32780;SDS011;19136;47.032;15.502;2023-12-07T03:14:49;75.30;;;19.30;;
32780;SDS011;19136;47.032;15.502;2023-12-07T03:17:14;38.50;;;18.88;;
32780;SDS011;19136;47.032;15.502;2023-12-07T03:19:40;53.33;;;19.70;;
32780;SDS011;19136;47.032;15.502;2023-12-07T03:22:06;125.55;;;21.70;;
32780;SDS011;19136;47.032;15.502;2023-12-07T03:24:36;43.75;;;19.10;;
32780;SDS011;19136;47.032;15.502;2023-12-07T03:27:02;80.40;;;22.02;;
32780;SDS011;19136;47.032;15.502;2023-12-07T03:29:28;41.95;;;19.35;;
32780;SDS011;19136;47.032;15.502;2023-12-07T03:31:53;57.83;;;20.65;;
32780;SDS011;19136;47.032;15.502;2023-12-07T03:34:19;50.03;;;19.50;;
32780;SDS011;19136;47.032;15.502;2023-12-07T03:36:47;74.25;;;19.25;;
32780;SDS011;19136;47.032;15.502;2023-12-07T03:39:17;86.22;;;19.88;;
32780;SDS011;19136;47.032;15.502;2023-12-07T03:41:50;66.10;;;19.55;;
32780;SDS011;19136;47.032;15.502;2023-12-07T03:44:16;42.45;;;19.00;;
32780;SDS011;19136;47.032;15.502;2023-12-07T03:46:41;70.97;;;19.67;;
32780;SDS011;19136;47.032;15.502;2023-12-07T03:49:06;122.10;;;21.35;;
32780;SDS011;19136;47.032;15.502;2023-12-07T03:51:32;53.72;;;19.40;;
32780;SDS011;19136;47.032;15.502;2023-12-07T03:53:57;124.03;;;22.00;;
32780;SDS011;19136;47.032;15.502;2023-12-07T03:56:27;50.08;;;18.48;;
32780;SDS011;19136;47.032;15.502;2023-12-07T03:58:53;66.60;;;19.23;;
32780;SDS011;19136;47.032;15.502;2023-12-07T04:01:21;94.95;;;19.95;;
32780;SDS011;19136;47.032;15.502;2023-12-07T04:03:47;40.33;;;18.55;;
32780;SDS011;19136;47.032;15.502;2023-12-07T04:06:13;42.17;;;18.73;;
32780;SDS011;19136;47.032;15.502;2023-12-07T04:08:38;78.30;;;18.85;;
32780;SDS011;19136;47.032;15.502;2023-12-07T04:11:03;81.50;;;19.77;;
32780;SDS011;19136;47.032;15.502;2023-12-07T04:13:29;191.88;;;23.48;;
32780;SDS011;19136;47.032;15.502;2023-12-07T04:15:55;166.10;;;22.00;;
32780;SDS011;19136;47.032;15.502;2023-12-07T04:18:20;99.38;;;17.52;;
32780;SDS011;19136;47.032;15.502;2023-12-07T04:20:46;57.13;;;18.48;;
32780;SDS011;19136;47.032;15.502;2023-12-07T04:23:11;180.40;;;18.10;;
32780;SDS011;19136;47.032;15.502;2023-12-07T04:25:37;31.50;;;17.25;;
32780;SDS011;19136;47.032;15.502;2023-12-07T04:28:02;34.03;;;17.30;;
32780;SDS011;19136;47.032;15.502;2023-12-07T04:30:28;124.13;;;20.58;;
32780;SDS011;19136;47.032;15.502;2023-12-07T04:32:53;91.03;;;17.85;;
32780;SDS011;19136;47.032;15.502;2023-12-07T04:35:19;56.75;;;17.67;;
32780;SDS011;19136;47.032;15.502;2023-12-07T04:37:44;39.63;;;16.17;;
32780;SDS011;19136;47.032;15.502;2023-12-07T04:40:10;53.97;;;17.05;;
32780;SDS011;19136;47.032;15.502;2023-12-07T04:42:36;56.53;;;17.08;;
32780;SDS011;19136;47.032;15.502;2023-12-07T04:45:01;37.92;;;18.25;;
32780;SDS011;19136;47.032;15.502;2023-12-07T04:47:27;87.22;;;22.98;;
32780;SDS011;19136;47.032;15.502;2023-12-07T04:49:52;31.33;;;16.52;;
32780;SDS011;19136;47.032;15.502;2023-12-07T04:52:18;63.25;;;21.30;;
32780;SDS011;19136;47.032;15.502;2023-12-07T04:54:44;35.22;;;18.25;;
32780;SDS011;19136;47.032;15.502;2023-12-07T04:57:10;41.70;;;19.70;;
32780;SDS011;19136;47.032;15.502;2023-12-07T04:59:35;30.75;;;17.42;;
32780;SDS011;19136;47.032;15.502;2023-12-07T05:02:01;33.00;;;18.17;;
32780;SDS011;19136;47.032;15.502;2023-12-07T05:04:27;34.67;;;17.38;;
32780;SDS011;19136;47.032;15.502;2023-12-07T05:06:52;30.30;;;16.85;;
32780;SDS011;19136;47.032;15.502;2023-12-07T05:09:18;35.13;;;17.95;;
32780;SDS011;19136;47.032;15.502;2023-12-07T05:11:43;34.92;;;17.52;;
32780;SDS011;19136;47.032;15.502;2023-12-07T05:14:11;32.67;;;17.13;;
32780;SDS011;19136;47.032;15.502;2023-12-07T05:16:36;33.83;;;18.10;;
32780;SDS011;19136;47.032;15.502;2023-12-07T05:19:01;31.73;;;17.25;;
32780;SDS011;19136;47.032;15.502;2023-12-07T05:21:27;37.80;;;20.05;;
32780;SDS011;19136;47.032;15.502;2023-12-07T05:23:53;38.95;;;19.15;;
32780;SDS011;19136;47.032;15.502;2023-12-07T05:26:18;46.15;;;22.23;;
32780;SDS011;19136;47.032;15.502;2023-12-07T05:28:44;69.93;;;33.58;;
32780;SDS011;19136;47.032;15.502;2023-12-07T05:31:15;60.10;;;27.70;;
32780;SDS011;19136;47.032;15.502;2023-12-07T05:33:40;39.97;;;20.70;;
32780;SDS011;19136;47.032;15.502;2023-12-07T05:36:06;35.38;;;19.00;;
32780;SDS011;19136;47.032;15.502;2023-12-07T05:38:31;39.05;;;19.98;;
32780;SDS011;19136;47.032;15.502;2023-12-07T05:40:57;34.40;;;18.77;;
32780;SDS011;19136;47.032;15.502;2023-12-07T05:43:22;35.17;;;18.42;;
32780;SDS011;19136;47.032;15.502;2023-12-07T05:45:48;37.03;;;19.05;;
32780;SDS011;19136;47.032;15.502;2023-12-07T05:48:13;34.75;;;18.23;;
32780;SDS011;19136;47.032;15.502;2023-12-07T05:50:39;37.75;;;18.08;;
32780;SDS011;19136;47.032;15.502;2023-12-07T05:53:05;38.72;;;18.52;;
32780;SDS011;19136;47.032;15.502;2023-12-07T05:55:31;35.08;;;18.90;;
32780;SDS011;19136;47.032;15.502;2023-12-07T05:57:57;34.33;;;19.63;;
32780;SDS011;19136;47.032;15.502;2023-12-07T06:00:22;35.10;;;19.00;;
32780;SDS011;19136;47.032;15.502;2023-12-07T06:02:48;39.03;;;19.42;;
32780;SDS011;19136;47.032;15.502;2023-12-07T06:05:14;32.38;;;18.30;;
32780;SDS011;19136;47.032;15.502;2023-12-07T06:07:40;34.20;;;18.73;;
32780;SDS011;19136;47.032;15.502;2023-12-07T06:10:06;31.10;;;17.73;;
32780;SDS011;19136;47.032;15.502;2023-12-07T06:12:32;33.58;;;18.73;;
32780;SDS011;19136;47.032;15.502;2023-12-07T06:14:58;30.45;;;17.73;;
32780;SDS011;19136;47.032;15.502;2023-12-07T06:17:23;38.53;;;19.45;;
32780;SDS011;19136;47.032;15.502;2023-12-07T06:19:48;37.45;;;18.83;;
32780;SDS011;19136;47.032;15.502;2023-12-07T06:22:14;38.47;;;19.52;;
32780;SDS011;19136;47.032;15.502;2023-12-07T06:24:39;39.58;;;20.20;;
32780;SDS011;19136;47.032;15.502;2023-12-07T06:27:05;35.58;;;19.15;;
32780;SDS011;19136;47.032;15.502;2023-12-07T06:29:30;34.00;;;19.27;;
32780;SDS011;19136;47.032;15.502;2023-12-07T06:31:56;35.28;;;19.20;;
32780;SDS011;19136;47.032;15.502;2023-12-07T06:34:22;33.53;;;19.75;;
32780;SDS011;19136;47.032;15.502;2023-12-07T06:36:47;36.97;;;19.40;;
32780;SDS011;19136;47.032;15.502;2023-12-07T06:39:13;33.47;;;18.35;;
32780;SDS011;19136;47.032;15.502;2023-12-07T06:41:39;40.13;;;18.95;;
32780;SDS011;19136;47.032;15.502;2023-12-07T06:44:05;34.65;;;17.73;;
32780;SDS011;19136;47.032;15.502;2023-12-07T06:46:31;35.25;;;19.30;;
32780;SDS011;19136;47.032;15.502;2023-12-07T06:48:56;38.33;;;20.10;;
32780;SDS011;19136;47.032;15.502;2023-12-07T06:51:22;32.72;;;18.55;;
32780;SDS011;19136;47.032;15.502;2023-12-07T06:53:47;36.20;;;19.13;;
32780;SDS011;19136;47.032;15.502;2023-12-07T06:56:13;34.00;;;18.05;;
32780;SDS011;19136;47.032;15.502;2023-12-07T06:58:39;33.08;;;17.52;;
32780;SDS011;19136;47.032;15.502;2023-12-07T07:01:05;35.10;;;18.08;;
32780;SDS011;19136;47.032;15.502;2023-12-07T07:03:30;34.72;;;16.75;;
32780;SDS011;19136;47.032;15.502;2023-12-07T07:05:56;35.75;;;18.38;;
32780;SDS011;19136;47.032;15.502;2023-12-07T07:08:21;36.00;;;18.00;;
32780;SDS011;19136;47.032;15.502;2023-12-07T07:10:47;38.75;;;19.27;;
32780;SDS011;19136;47.032;15.502;2023-12-07T07:13:12;41.28;;;19.75;;
32780;SDS011;19136;47.032;15.502;2023-12-07T07:15:41;41.47;;;18.73;;
32780;SDS011;19136;47.032;15.502;2023-12-07T07:18:07;33.60;;;17.30;;
32780;SDS011;19136;47.032;15.502;2023-12-07T07:20:33;36.67;;;18.95;;
32780;SDS011;19136;47.032;15.502;2023-12-07T07:22:58;39.67;;;17.88;;
32780;SDS011;19136;47.032;15.502;2023-12-07T07:25:24;36.63;;;18.60;;
32780;SDS011;19136;47.032;15.502;2023-12-07T07:27:49;32.60;;;17.45;;
32780;SDS011;19136;47.032;15.502;2023-12-07T07:30:15;35.28;;;18.10;;
32780;SDS011;19136;47.032;15.502;2023-12-07T07:32:40;34.15;;;18.48;;
32780;SDS011;19136;47.032;15.502;2023-12-07T07:35:06;38.05;;;19.00;;
32780;SDS011;19136;47.032;15.502;2023-12-07T07:37:32;32.65;;;17.90;;
32780;SDS011;19136;47.032;15.502;2023-12-07T07:39:57;33.33;;;17.70;;
32780;SDS011;19136;47.032;15.502;2023-12-07T07:42:25;33.05;;;17.55;;
32780;SDS011;19136;47.032;15.502;2023-12-07T07:44:50;37.85;;;19.58;;
32780;SDS011;19136;47.032;15.502;2023-12-07T07:47:16;34.85;;;18.15;;
32780;SDS011;19136;47.032;15.502;2023-12-07T07:49:41;35.67;;;16.90;;
32780;SDS011;19136;47.032;15.502;2023-12-07T07:52:07;31.85;;;17.42;;
32780;SDS011;19136;47.032;15.502;2023-12-07T07:54:33;30.52;;;16.17;;
32780;SDS011;19136;47.032;15.502;2023-12-07T07:56:58;35.88;;;16.67;;
32780;SDS011;19136;47.032;15.502;2023-12-07T07:59:23;29.63;;;16.48;;
32780;SDS011;19136;47.032;15.502;2023-12-07T08:01:49;32.97;;;15.60;;
32780;SDS011;19136;47.032;15.502;2023-12-07T08:04:15;29.13;;;15.27;;
32780;SDS011;19136;47.032;15.502;2023-12-07T08:06:40;31.58;;;15.82;;
32780;SDS011;19136;47.032;15.502;2023-12-07T08:09:07;32.83;;;16.10;;
32780;SDS011;19136;47.032;15.502;2023-12-07T08:11:32;29.60;;;15.65;;
32780;SDS011;19136;47.032;15.502;2023-12-07T08:13:58;26.77;;;15.52;;
32780;SDS011;19136;47.032;15.502;2023-12-07T08:16:24;27.75;;;14.27;;
32780;SDS011;19136;47.032;15.502;2023-12-07T08:18:49;21.83;;;13.27;;
32780;SDS011;19136;47.032;15.502;2023-12-07T08:21:21;23.48;;;13.15;;
32780;SDS011;19136;47.032;15.502;2023-12-07T08:23:46;24.27;;;13.43;;
32780;SDS011;19136;47.032;15.502;2023-12-07T08:26:12;20.42;;;13.32;;
32780;SDS011;19136;47.032;15.502;2023-12-07T08:28:39;20.88;;;12.43;;
32780;SDS011;19136;47.032;15.502;2023-12-07T08:31:05;18.33;;;11.77;;
32780;SDS011;19136;47.032;15.502;2023-12-07T08:33:30;20.08;;;10.55;;
32780;SDS011;19136;47.032;15.502;2023-12-07T08:35:56;18.55;;;10.85;;
32780;SDS011;19136;47.032;15.502;2023-12-07T08:38:22;19.00;;;11.05;;
32780;SDS011;19136;47.032;15.502;2023-12-07T08:40:48;20.33;;;10.77;;
32780;SDS011;19136;47.032;15.502;2023-12-07T08:43:13;24.73;;;10.00;;
32780;SDS011;19136;47.032;15.502;2023-12-07T08:45:39;17.88;;;9.40;;
32780;SDS011;19136;47.032;15.502;2023-12-07T08:48:04;23.10;;;11.65;;
32780;SDS011;19136;47.032;15.502;2023-12-07T08:50:30;21.10;;;10.52;;
32780;SDS011;19136;47.032;15.502;2023-12-07T08:52:55;25.70;;;11.35;;
32780;SDS011;19136;47.032;15.502;2023-12-07T08:55:21;20.55;;;11.35;;
32780;SDS011;19136;47.032;15.502;2023-12-07T08:57:46;19.45;;;11.13;;
32780;SDS011;19136;47.032;15.502;2023-12-07T09:00:12;35.78;;;11.52;;
32780;SDS011;19136;47.032;15.502;2023-12-07T09:02:38;24.83;;;11.75;;
32780;SDS011;19136;47.032;15.502;2023-12-07T09:05:04;27.75;;;11.93;;
32780;SDS011;19136;47.032;15.502;2023-12-07T09:07:29;21.17;;;11.48;;
32780;SDS011;19136;47.032;15.502;2023-12-07T09:09:55;20.88;;;11.57;;
32780;SDS011;19136;47.032;15.502;2023-12-07T09:12:20;23.42;;;12.05;;
32780;SDS011;19136;47.032;15.502;2023-12-07T09:14:45;23.13;;;11.75;;
32780;SDS011;19136;47.032;15.502;2023-12-07T09:17:11;23.33;;;12.68;;
32780;SDS011;19136;47.032;15.502;2023-12-07T09:19:37;26.90;;;13.38;;
32780;SDS011;19136;47.032;15.502;2023-12-07T09:22:02;26.63;;;15.32;;
32780;SDS011;19136;47.032;15.502;2023-12-07T09:24:28;25.17;;;14.10;;
32780;SDS011;19136;47.032;15.502;2023-12-07T09:26:53;30.50;;;16.77;;
32780;SDS011;19136;47.032;15.502;2023-12-07T09:29:19;28.13;;;16.80;;
32780;SDS011;19136;47.032;15.502;2023-12-07T09:31:44;26.95;;;15.48;;
32780;SDS011;19136;47.032;15.502;2023-12-07T09:34:10;29.45;;;16.20;;
32780;SDS011;19136;47.032;15.502;2023-12-07T09:36:35;34.28;;;17.90;;
32780;SDS011;19136;47.032;15.502;2023-12-07T09:39:01;27.83;;;16.23;;
32780;SDS011;19136;47.032;15.502;2023-12-07T09:41:27;27.85;;;15.95;;
32780;SDS011;19136;47.032;15.502;2023-12-07T09:43:53;24.42;;;14.95;;
32780;SDS011;19136;47.032;15.502;2023-12-07T09:46:20;26.00;;;15.68;;
32780;SDS011;19136;47.032;15.502;2023-12-07T09:48:45;26.40;;;15.45;;
32780;SDS011;19136;47.032;15.502;2023-12-07T09:51:12;25.35;;;14.27;;
32780;SDS011;19136;47.032;15.502;2023-12-07T09:53:40;21.92;;;12.60;;
32780;SDS011;19136;47.032;15.502;2023-12-07T09:56:07;17.02;;;11.60;;
32780;SDS011;19136;47.032;15.502;2023-12-07T09:58:33;18.52;;;11.70;;
32780;SDS011;19136;47.032;15.502;2023-12-07T10:00:58;18.90;;;11.00;;
32780;SDS011;19136;47.032;15.502;2023-12-07T10:03:24;17.00;;;9.68;;
32780;SDS011;19136;47.032;15.502;2023-12-07T10:05:53;17.27;;;8.25;;
32780;SDS011;19136;47.032;15.502;2023-12-07T10:08:29;10.93;;;6.72;;
32780;SDS011;19136;47.032;15.502;2023-12-07T10:11:01;8.50;;;5.65;;
32780;SDS011;19136;47.032;15.502;2023-12-07T10:13:28;7.47;;;4.40;;
32780;SDS011;19136;47.032;15.502;2023-12-07T10:18:32;6.40;;;3.70;;
32780;SDS011;19136;47.032;15.502;2023-12-07T10:20:57;10.60;;;5.70;;
32780;SDS011;19136;47.032;15.502;2023-12-07T10:23:23;4.60;;;3.08;;
32780;SDS011;19136;47.032;15.502;2023-12-07T10:25:50;3.10;;;2.08;;
32780;SDS011;19136;47.032;15.502;2023-12-07T10:28:15;4.75;;;3.60;;
32780;SDS011;19136;47.032;15.502;2023-12-07T10:30:43;9.55;;;5.65;;
32780;SDS011;19136;47.032;15.502;2023-12-07T10:33:09;14.15;;;7.18;;
32780;SDS011;19136;47.032;15.502;2023-12-07T10:35:38;4.05;;;3.10;;
32780;SDS011;19136;47.032;15.502;2023-12-07T10:38:04;3.95;;;2.25;;
32780;SDS011;19136;47.032;15.502;2023-12-07T10:40:30;2.78;;;1.70;;
32780;SDS011;19136;47.032;15.502;2023-12-07T10:42:56;4.20;;;1.90;;
32780;SDS011;19136;47.032;15.502;2023-12-07T10:45:25;3.45;;;1.77;;
32780;SDS011;19136;47.032;15.502;2023-12-07T10:47:52;2.40;;;1.55;;
32780;SDS011;19136;47.032;15.502;2023-12-07T10:50:21;2.95;;;1.70;;
32780;SDS011;19136;47.032;15.502;2023-12-07T10:52:51;5.60;;;1.70;;
32780;SDS011;19136;47.032;15.502;2023-12-07T10:55:20;3.47;;;2.05;;
32780;SDS011;19136;47.032;15.502;2023-12-07T10:57:46;5.47;;;1.92;;
32780;SDS011;19136;47.032;15.502;2023-12-07T11:00:12;3.83;;;1.60;;
32780;SDS011;19136;47.032;15.502;2023-12-07T11:02:37;4.38;;;1.50;;
32780;SDS011;19136;47.032;15.502;2023-12-07T11:05:03;2.85;;;1.60;;
32780;SDS011;19136;47.032;15.502;2023-12-07T11:07:32;3.72;;;1.63;;
32780;SDS011;19136;47.032;15.502;2023-12-07T11:10:05;2.10;;;1.50;;
32780;SDS011;19136;47.032;15.502;2023-12-07T11:12:45;2.72;;;1.67;;
32780;SDS011;19136;47.032;15.502;2023-12-07T11:15:13;6.03;;;1.70;;
32780;SDS011;19136;47.032;15.502;2023-12-07T11:17:52;3.00;;;1.58;;
32780;SDS011;19136;47.032;15.502;2023-12-07T11:20:18;4.20;;;2.33;;
32780;SDS011;19136;47.032;15.502;2023-12-07T11:22:44;3.15;;;1.70;;
32780;SDS011;19136;47.032;15.502;2023-12-07T11:25:09;3.88;;;2.65;;
32780;SDS011;19136;47.032;15.502;2023-12-07T11:27:35;2.88;;;1.70;;
32780;SDS011;19136;47.032;15.502;2023-12-07T11:30:02;3.17;;;1.52;;
32780;SDS011;19136;47.032;15.502;2023-12-07T11:32:28;2.85;;;1.63;;
32780;SDS011;19136;47.032;15.502;2023-12-07T11:34:54;5.03;;;2.00;;
32780;SDS011;19136;47.032;15.502;2023-12-07T11:37:19;3.60;;;1.63;;
32780;SDS011;19136;47.032;15.502;2023-12-07T11:39:45;2.70;;;1.20;;
32780;SDS011;19136;47.032;15.502;2023-12-07T11:44:39;2.08;;;1.67;;
32780;SDS011;19136;47.032;15.502;2023-12-07T11:47:05;3.95;;;1.50;;
32780;SDS011;19136;47.032;15.502;2023-12-07T11:49:31;2.53;;;1.50;;
32780;SDS011;19136;47.032;15.502;2023-12-07T11:51:57;2.42;;;1.30;;
32780;SDS011;19136;47.032;15.502;2023-12-07T11:54:23;3.00;;;1.65;;
32780;SDS011;19136;47.032;15.502;2023-12-07T11:56:58;2.65;;;1.60;;
32780;SDS011;19136;47.032;15.502;2023-12-07T11:59:23;2.58;;;1.42;;
32780;SDS011;19136;47.032;15.502;2023-12-07T12:01:52;5.50;;;1.50;;
32780;SDS011;19136;47.032;15.502;2023-12-07T12:04:18;2.42;;;1.60;;
32780;SDS011;19136;47.032;15.502;2023-12-07T12:06:44;3.25;;;1.50;;
32780;SDS011;19136;47.032;15.502;2023-12-07T12:09:13;2.75;;;1.50;;
32780;SDS011;19136;47.032;15.502;2023-12-07T12:11:46;4.38;;;1.63;;
32780;SDS011;19136;47.032;15.502;2023-12-07T12:14:15;1.75;;;1.20;;
32780;SDS011;19136;47.032;15.502;2023-12-07T12:16:42;2.08;;;1.27;;
32780;SDS011;19136;47.032;15.502;2023-12-07T12:19:08;3.03;;;1.40;;
32780;SDS011;19136;47.032;15.502;2023-12-07T12:21:34;2.58;;;1.40;;
32780;SDS011;19136;47.032;15.502;2023-12-07T12:24:00;3.13;;;1.48;;
32780;SDS011;19136;47.032;15.502;2023-12-07T12:26:25;1.95;;;1.48;;
32780;SDS011;19136;47.032;15.502;2023-12-07T12:28:51;3.10;;;1.27;;
32780;SDS011;19136;47.032;15.502;2023-12-07T12:31:17;2.72;;;1.20;;
32780;SDS011;19136;47.032;15.502;2023-12-07T12:33:43;2.20;;;1.38;;
32780;SDS011;19136;47.032;15.502;2023-12-07T12:36:08;2.25;;;1.25;;
32780;SDS011;19136;47.032;15.502;2023-12-07T12:38:36;1.92;;;1.25;;
32780;SDS011;19136;47.032;15.502;2023-12-07T12:41:01;1.67;;;1.13;;
32780;SDS011;19136;47.032;15.502;2023-12-07T12:43:29;2.20;;;1.42;;
32780;SDS011;19136;47.032;15.502;2023-12-07T12:45:56;3.60;;;1.30;;
32780;SDS011;19136;47.032;15.502;2023-12-07T12:48:22;2.55;;;1.35;;
32780;SDS011;19136;47.032;15.502;2023-12-07T12:50:48;3.72;;;1.55;;
32780;SDS011;19136;47.032;15.502;2023-12-07T12:53:14;2.33;;;1.50;;
32780;SDS011;19136;47.032;15.502;2023-12-07T12:55:40;1.50;;;1.30;;
32780;SDS011;19136;47.032;15.502;2023-12-07T12:58:06;1.95;;;1.42;;
32780;SDS011;19136;47.032;15.502;2023-12-07T13:00:33;2.85;;;1.70;;
32780;SDS011;19136;47.032;15.502;2023-12-07T13:03:04;2.42;;;1.08;;
32780;SDS011;19136;47.032;15.502;2023-12-07T13:05:29;2.88;;;1.50;;
32780;SDS011;19136;47.032;15.502;2023-12-07T13:07:55;3.45;;;1.52;;
32780;SDS011;19136;47.032;15.502;2023-12-07T13:10:20;4.47;;;1.15;;
32780;SDS011;19136;47.032;15.502;2023-12-07T13:12:46;2.40;;;1.38;;
32780;SDS011;19136;47.032;15.502;2023-12-07T13:15:11;4.55;;;1.40;;
32780;SDS011;19136;47.032;15.502;2023-12-07T13:17:40;2.15;;;1.40;;
32780;SDS011;19136;47.032;15.502;2023-12-07T13:20:06;3.78;;;1.38;;
32780;SDS011;19136;47.032;15.502;2023-12-07T13:22:38;2.15;;;1.40;;
32780;SDS011;19136;47.032;15.502;2023-12-07T13:25:04;5.47;;;1.52;;
32780;SDS011;19136;47.032;15.502;2023-12-07T13:27:31;4.40;;;1.60;;
32780;SDS011;19136;47.032;15.502;2023-12-07T13:29:57;2.45;;;1.48;;
32780;SDS011;19136;47.032;15.502;2023-12-07T13:32:23;3.15;;;1.60;;
32780;SDS011;19136;47.032;15.502;2023-12-07T13:34:49;6.38;;;1.75;;
32780;SDS011;19136;47.032;15.502;2023-12-07T13:37:14;3.30;;;1.90;;
32780;SDS011;19136;47.032;15.502;2023-12-07T13:39:40;2.15;;;1.30;;
32780;SDS011;19136;47.032;15.502;2023-12-07T13:42:08;2.92;;;1.23;;
32780;SDS011;19136;47.032;15.502;2023-12-07T13:44:35;4.10;;;1.50;;
32780;SDS011;19136;47.032;15.502;2023-12-07T13:47:00;3.33;;;1.55;;
32780;SDS011;19136;47.032;15.502;2023-12-07T13:49:26;3.22;;;1.60;;
32780;SDS011;19136;47.032;15.502;2023-12-07T13:51:51;4.65;;;1.70;;
32780;SDS011;19136;47.032;15.502;2023-12-07T13:54:17;2.78;;;2.00;;
32780;SDS011;19136;47.032;15.502;2023-12-07T13:56:42;3.90;;;2.25;;
32780;SDS011;19136;47.032;15.502;2023-12-07T13:59:08;3.45;;;1.80;;
32780;SDS011;19136;47.032;15.502;2023-12-07T14:01:36;3.78;;;1.90;;
32780;SDS011;19136;47.032;15.502;2023-12-07T14:04:02;2.40;;;1.70;;
32780;SDS011;19136;47.032;15.502;2023-12-07T14:06:28;4.78;;;2.80;;
32780;SDS011;19136;47.032;15.502;2023-12-07T14:08:53;4.20;;;2.15;;
32780;SDS011;19136;47.032;15.502;2023-12-07T14:11:19;3.25;;;2.15;;
32780;SDS011;19136;47.032;15.502;2023-12-07T14:13:45;3.67;;;2.10;;